EmailTwitter


Observations de surface / France / LFPO (07149)

Régions: Québec | Canada | États-Unis | Europe | France | UK | Ailleurs
Station
Affichage
Infos & localisation pour LFPO (07149) | Aide pour décoder les METARs

Observations prises le 2017-11-17 à 23H00 UTC à PARIS/ORLY, FR (LFPO)

Température: 5.0 Celsius

Point de rosée: 4.0 Celsius

Humidité relative: 93%

Vents: Nord à 6 km/h ou 3 noeuds.

Pression au niveau moyen de la mer: 102.70 kilopascals.

Observation METAR:

LFPO 172300Z 01003KT CAVOK 05/04 Q1027 NOSIG=